sensor_id;sensor_type;location;lat;lon;timestamp;temperature;humidity
5118;DHT22;2578;51.622;7.046;2023-08-01T00:06:48;15.60;99.90
5118;DHT22;2578;51.622;7.046;2023-08-01T00:14:06;15.60;99.90
5118;DHT22;2578;51.622;7.046;2023-08-01T00:16:32;15.60;99.90
5118;DHT22;2578;51.622;7.046;2023-08-01T00:18:58;15.60;99.90
5118;DHT22;2578;51.622;7.046;2023-08-01T00:21:23;15.60;99.90
5118;DHT22;2578;51.622;7.046;2023-08-01T00:23:49;15.60;99.90
5118;DHT22;2578;51.622;7.046;2023-08-01T00:26:15;15.60;99.90
5118;DHT22;2578;51.622;7.046;2023-08-01T00:31:08;15.60;99.90
5118;DHT22;2578;51.622;7.046;2023-08-01T00:33:36;15.60;99.90
5118;DHT22;2578;51.622;7.046;2023-08-01T00:36:02;15.60;99.90
5118;DHT22;2578;51.622;7.046;2023-08-01T00:38:28;15.60;99.90
5118;DHT22;2578;51.622;7.046;2023-08-01T00:40:53;15.60;99.90
5118;DHT22;2578;51.622;7.046;2023-08-01T00:43:19;15.70;99.90
5118;DHT22;2578;51.622;7.046;2023-08-01T00:45:45;15.60;99.90
5118;DHT22;2578;51.622;7.046;2023-08-01T00:48:11;15.60;99.90
5118;DHT22;2578;51.622;7.046;2023-08-01T00:50:38;15.60;99.90
5118;DHT22;2578;51.622;7.046;2023-08-01T00:53:04;15.60;99.90
5118;DHT22;2578;51.622;7.046;2023-08-01T00:55:32;15.60;99.90
5118;DHT22;2578;51.622;7.046;2023-08-01T00:57:59;15.60;99.90
5118;DHT22;2578;51.622;7.046;2023-08-01T01:00:25;15.60;99.90
5118;DHT22;2578;51.622;7.046;2023-08-01T01:02:51;15.60;99.90
5118;DHT22;2578;51.622;7.046;2023-08-01T01:05:17;14.70;99.90
5118;DHT22;2578;51.622;7.046;2023-08-01T01:07:44;15.60;99.90
5118;DHT22;2578;51.622;7.046;2023-08-01T01:10:09;15.50;99.90
5118;DHT22;2578;51.622;7.046;2023-08-01T01:12:35;15.50;99.90
5118;DHT22;2578;51.622;7.046;2023-08-01T01:17:27;15.60;99.90
5118;DHT22;2578;51.622;7.046;2023-08-01T01:22:19;15.50;99.90
5118;DHT22;2578;51.622;7.046;2023-08-01T01:27:12;15.50;99.90
5118;DHT22;2578;51.622;7.046;2023-08-01T01:29:38;15.50;99.90
5118;DHT22;2578;51.622;7.046;2023-08-01T01:32:05;15.50;99.90
5118;DHT22;2578;51.622;7.046;2023-08-01T01:34:31;15.40;99.90
5118;DHT22;2578;51.622;7.046;2023-08-01T01:36:57;15.40;99.90
5118;DHT22;2578;51.622;7.046;2023-08-01T01:39:22;15.40;99.90
5118;DHT22;2578;51.622;7.046;2023-08-01T01:41:48;15.40;99.90
5118;DHT22;2578;51.622;7.046;2023-08-01T01:44:14;15.40;99.90
5118;DHT22;2578;51.622;7.046;2023-08-01T01:46:39;15.40;99.90
5118;DHT22;2578;51.622;7.046;2023-08-01T01:49:05;15.50;99.90
5118;DHT22;2578;51.622;7.046;2023-08-01T01:51:31;15.40;99.90
5118;DHT22;2578;51.622;7.046;2023-08-01T01:53:57;15.40;99.90
5118;DHT22;2578;51.622;7.046;2023-08-01T01:56:22;15.40;99.90
5118;DHT22;2578;51.622;7.046;2023-08-01T01:58:48;15.50;99.90
5118;DHT22;2578;51.622;7.046;2023-08-01T02:01:14;15.40;99.90
5118;DHT22;2578;51.622;7.046;2023-08-01T02:03:39;15.40;99.90
5118;DHT22;2578;51.622;7.046;2023-08-01T02:06:05;15.50;99.90
5118;DHT22;2578;51.622;7.046;2023-08-01T02:08:31;15.50;99.90
5118;DHT22;2578;51.622;7.046;2023-08-01T02:10:56;15.50;99.90
5118;DHT22;2578;51.622;7.046;2023-08-01T02:13:28;15.50;99.90
5118;DHT22;2578;51.622;7.046;2023-08-01T02:15:54;15.50;99.90
5118;DHT22;2578;51.622;7.046;2023-08-01T02:18:19;15.50;99.90
5118;DHT22;2578;51.622;7.046;2023-08-01T02:20:45;15.50;99.90
5118;DHT22;2578;51.622;7.046;2023-08-01T02:23:11;15.50;99.90
5118;DHT22;2578;51.622;7.046;2023-08-01T02:25:40;15.50;99.90
5118;DHT22;2578;51.622;7.046;2023-08-01T02:28:06;15.50;99.90
5118;DHT22;2578;51.622;7.046;2023-08-01T02:30:32;15.50;99.90
5118;DHT22;2578;51.622;7.046;2023-08-01T02:32:58;15.50;99.90
5118;DHT22;2578;51.622;7.046;2023-08-01T02:35:23;15.50;99.90
5118;DHT22;2578;51.622;7.046;2023-08-01T02:37:49;15.50;99.90
5118;DHT22;2578;51.622;7.046;2023-08-01T02:40:15;15.50;99.90
5118;DHT22;2578;51.622;7.046;2023-08-01T02:42:40;15.60;99.90
5118;DHT22;2578;51.622;7.046;2023-08-01T02:45:06;15.60;99.90
5118;DHT22;2578;51.622;7.046;2023-08-01T02:47:32;15.60;99.90
5118;DHT22;2578;51.622;7.046;2023-08-01T02:49:57;15.60;99.90
5118;DHT22;2578;51.622;7.046;2023-08-01T02:54:49;15.60;99.90
5118;DHT22;2578;51.622;7.046;2023-08-01T02:57:15;15.60;99.90
5118;DHT22;2578;51.622;7.046;2023-08-01T03:02:07;15.60;99.90
5118;DHT22;2578;51.622;7.046;2023-08-01T03:04:32;15.60;99.90
5118;DHT22;2578;51.622;7.046;2023-08-01T03:06:58;15.60;99.90
5118;DHT22;2578;51.622;7.046;2023-08-01T03:11:50;15.60;99.90
5118;DHT22;2578;51.622;7.046;2023-08-01T03:14:15;17.40;99.90
5118;DHT22;2578;51.622;7.046;2023-08-01T03:19:08;15.50;99.90
5118;DHT22;2578;51.622;7.046;2023-08-01T03:21:34;15.50;99.90
5118;DHT22;2578;51.622;7.046;2023-08-01T03:24:01;15.50;99.90
5118;DHT22;2578;51.622;7.046;2023-08-01T03:31:23;15.40;99.90
5118;DHT22;2578;51.622;7.046;2023-08-01T03:33:48;15.40;99.90
5118;DHT22;2578;51.622;7.046;2023-08-01T03:36:16;15.40;99.90
5118;DHT22;2578;51.622;7.046;2023-08-01T03:38:44;15.30;99.90
5118;DHT22;2578;51.622;7.046;2023-08-01T03:41:10;15.30;99.90
5118;DHT22;2578;51.622;7.046;2023-08-01T03:43:36;15.30;99.90
5118;DHT22;2578;51.622;7.046;2023-08-01T03:46:03;15.40;99.90
5118;DHT22;2578;51.622;7.046;2023-08-01T03:48:29;15.30;99.90
5118;DHT22;2578;51.622;7.046;2023-08-01T03:50:55;15.40;99.90
5118;DHT22;2578;51.622;7.046;2023-08-01T03:53:21;15.40;99.90
5118;DHT22;2578;51.622;7.046;2023-08-01T03:55:47;15.30;99.90
5118;DHT22;2578;51.622;7.046;2023-08-01T03:58:13;15.40;99.90
5118;DHT22;2578;51.622;7.046;2023-08-01T04:00:41;15.30;99.90
5118;DHT22;2578;51.622;7.046;2023-08-01T04:03:06;15.30;99.90
5118;DHT22;2578;51.622;7.046;2023-08-01T04:05:32;15.30;99.90
5118;DHT22;2578;51.622;7.046;2023-08-01T04:07:59;15.30;99.90
5118;DHT22;2578;51.622;7.046;2023-08-01T04:10:25;15.30;99.90
5118;DHT22;2578;51.622;7.046;2023-08-01T04:12:50;15.30;99.90
5118;DHT22;2578;51.622;7.046;2023-08-01T04:15:16;15.30;99.90
5118;DHT22;2578;51.622;7.046;2023-08-01T04:17:42;14.70;99.90
5118;DHT22;2578;51.622;7.046;2023-08-01T04:20:07;15.30;99.90
5118;DHT22;2578;51.622;7.046;2023-08-01T04:22:33;15.30;99.90
5118;DHT22;2578;51.622;7.046;2023-08-01T04:25:00;15.30;99.90
5118;DHT22;2578;51.622;7.046;2023-08-01T04:27:26;15.30;99.90
5118;DHT22;2578;51.622;7.046;2023-08-01T04:29:51;15.20;99.90
5118;DHT22;2578;51.622;7.046;2023-08-01T04:32:17;15.30;99.90
5118;DHT22;2578;51.622;7.046;2023-08-01T04:34:42;15.20;99.90
5118;DHT22;2578;51.622;7.046;2023-08-01T04:37:08;15.20;99.90
5118;DHT22;2578;51.622;7.046;2023-08-01T04:39:34;15.20;99.90
5118;DHT22;2578;51.622;7.046;2023-08-01T04:44:27;15.10;99.90
5118;DHT22;2578;51.622;7.046;2023-08-01T04:46:58;15.10;99.90
5118;DHT22;2578;51.622;7.046;2023-08-01T04:49:36;15.10;99.90
5118;DHT22;2578;51.622;7.046;2023-08-01T04:52:02;15.10;99.90
5118;DHT22;2578;51.622;7.046;2023-08-01T04:54:29;15.10;99.90
5118;DHT22;2578;51.622;7.046;2023-08-01T04:57:07;15.10;99.90
5118;DHT22;2578;51.622;7.046;2023-08-01T04:59:39;15.20;99.90
5118;DHT22;2578;51.622;7.046;2023-08-01T05:02:26;15.10;99.90
5118;DHT22;2578;51.622;7.046;2023-08-01T05:04:55;15.10;99.90
5118;DHT22;2578;51.622;7.046;2023-08-01T05:07:57;15.10;99.90
5118;DHT22;2578;51.622;7.046;2023-08-01T05:10:23;15.10;99.90
5118;DHT22;2578;51.622;7.046;2023-08-01T05:12:58;15.10;99.90
5118;DHT22;2578;51.622;7.046;2023-08-01T05:15:43;15.20;99.90
5118;DHT22;2578;51.622;7.046;2023-08-01T05:18:37;15.10;99.90
5118;DHT22;2578;51.622;7.046;2023-08-01T05:21:12;15.20;99.90
5118;DHT22;2578;51.622;7.046;2023-08-01T05:23:47;15.20;99.90
5118;DHT22;2578;51.622;7.046;2023-08-01T05:26:25;15.30;99.90
5118;DHT22;2578;51.622;7.046;2023-08-01T05:28:54;15.20;99.90
5118;DHT22;2578;51.622;7.046;2023-08-01T05:31:32;15.30;99.90
5118;DHT22;2578;51.622;7.046;2023-08-01T05:34:07;15.30;99.90
5118;DHT22;2578;51.622;7.046;2023-08-01T05:36:40;15.30;99.90
5118;DHT22;2578;51.622;7.046;2023-08-01T05:39:31;15.40;99.90
5118;DHT22;2578;51.622;7.046;2023-08-01T05:42:09;15.40;99.90
5118;DHT22;2578;51.622;7.046;2023-08-01T05:44:57;15.40;99.90
5118;DHT22;2578;51.622;7.046;2023-08-01T05:47:56;15.40;99.90
5118;DHT22;2578;51.622;7.046;2023-08-01T05:50:34;15.50;99.90
5118;DHT22;2578;51.622;7.046;2023-08-01T05:53:19;15.40;99.90
5118;DHT22;2578;51.622;7.046;2023-08-01T05:56:05;15.40;99.90
5118;DHT22;2578;51.622;7.046;2023-08-01T05:58:50;15.50;99.90
5118;DHT22;2578;51.622;7.046;2023-08-01T06:01:32;15.60;99.90
5118;DHT22;2578;51.622;7.046;2023-08-01T06:04:10;15.70;99.90
5118;DHT22;2578;51.622;7.046;2023-08-01T06:06:42;15.70;99.90
5118;DHT22;2578;51.622;7.046;2023-08-01T06:09:29;15.70;99.90
5118;DHT22;2578;51.622;7.046;2023-08-01T06:12:20;15.60;99.90
5118;DHT22;2578;51.622;7.046;2023-08-01T06:14:52;15.60;99.90
5118;DHT22;2578;51.622;7.046;2023-08-01T06:17:18;15.60;99.90
5118;DHT22;2578;51.622;7.046;2023-08-01T06:19:45;15.60;99.90
5118;DHT22;2578;51.622;7.046;2023-08-01T06:22:14;15.60;99.90
5118;DHT22;2578;51.622;7.046;2023-08-01T06:27:37;15.70;99.90
5118;DHT22;2578;51.622;7.046;2023-08-01T06:30:25;15.70;99.90
5118;DHT22;2578;51.622;7.046;2023-08-01T06:33:04;15.80;99.90
5118;DHT22;2578;51.622;7.046;2023-08-01T06:35:36;15.80;99.90
5118;DHT22;2578;51.622;7.046;2023-08-01T06:38:02;15.90;99.90
5118;DHT22;2578;51.622;7.046;2023-08-01T06:40:35;16.00;99.90
5118;DHT22;2578;51.622;7.046;2023-08-01T06:43:10;16.10;99.90
5118;DHT22;2578;51.622;7.046;2023-08-01T06:45:56;16.10;99.90
5118;DHT22;2578;51.622;7.046;2023-08-01T06:48:28;16.20;99.90
5118;DHT22;2578;51.622;7.046;2023-08-01T06:50:58;16.30;99.90
5118;DHT22;2578;51.622;7.046;2023-08-01T06:53:33;16.50;99.90
5118;DHT22;2578;51.622;7.046;2023-08-01T06:59:19;16.40;99.90
5118;DHT22;2578;51.622;7.046;2023-08-01T07:01:45;16.40;99.90
5118;DHT22;2578;51.622;7.046;2023-08-01T07:04:27;16.40;99.90
5118;DHT22;2578;51.622;7.046;2023-08-01T07:07:08;16.50;99.90
5118;DHT22;2578;51.622;7.046;2023-08-01T07:09:58;16.70;99.90
5118;DHT22;2578;51.622;7.046;2023-08-01T07:12:49;16.90;99.90
5118;DHT22;2578;51.622;7.046;2023-08-01T07:15:19;17.00;99.90
5118;DHT22;2578;51.622;7.046;2023-08-01T07:17:48;17.50;99.90
5118;DHT22;2578;51.622;7.046;2023-08-01T07:20:15;17.50;99.90
5118;DHT22;2578;51.622;7.046;2023-08-01T07:22:47;15.40;99.90
5118;DHT22;2578;51.622;7.046;2023-08-01T07:25:28;18.00;99.90
5118;DHT22;2578;51.622;7.046;2023-08-01T07:28:12;18.30;99.90
5118;DHT22;2578;51.622;7.046;2023-08-01T07:33:54;18.10;99.90
5118;DHT22;2578;51.622;7.046;2023-08-01T07:36:41;18.10;99.90
5118;DHT22;2578;51.622;7.046;2023-08-01T07:39:15;18.30;99.90
5118;DHT22;2578;51.622;7.046;2023-08-01T07:41:45;16.70;99.90
5118;DHT22;2578;51.622;7.046;2023-08-01T07:44:26;18.00;99.90
5118;DHT22;2578;51.622;7.046;2023-08-01T07:47:01;17.70;99.90
5118;DHT22;2578;51.622;7.046;2023-08-01T07:49:49;17.50;99.90
5118;DHT22;2578;51.622;7.046;2023-08-01T07:55:26;17.60;99.90
5118;DHT22;2578;51.622;7.046;2023-08-01T07:57:55;17.70;99.90
5118;DHT22;2578;51.622;7.046;2023-08-01T08:00:34;17.60;99.90
5118;DHT22;2578;51.622;7.046;2023-08-01T08:03:01;17.60;99.90
5118;DHT22;2578;51.622;7.046;2023-08-01T08:05:45;17.60;99.90
5118;DHT22;2578;51.622;7.046;2023-08-01T08:08:37;17.60;99.90
5118;DHT22;2578;51.622;7.046;2023-08-01T08:11:12;17.50;99.90
5118;DHT22;2578;51.622;7.046;2023-08-01T08:14:00;17.50;99.90
5118;DHT22;2578;51.622;7.046;2023-08-01T08:16:41;17.40;99.90
5118;DHT22;2578;51.622;7.046;2023-08-01T08:19:41;17.60;99.90
5118;DHT22;2578;51.622;7.046;2023-08-01T08:22:23;18.60;99.90
5118;DHT22;2578;51.622;7.046;2023-08-01T08:24:52;18.60;99.90
5118;DHT22;2578;51.622;7.046;2023-08-01T08:27:27;18.70;99.90
5118;DHT22;2578;51.622;7.046;2023-08-01T08:30:14;18.90;99.90
5118;DHT22;2578;51.622;7.046;2023-08-01T08:33:00;18.40;99.90
5118;DHT22;2578;51.622;7.046;2023-08-01T08:35:45;18.30;99.90
5118;DHT22;2578;51.622;7.046;2023-08-01T08:38:14;17.60;99.90
5118;DHT22;2578;51.622;7.046;2023-08-01T08:41:09;17.60;99.90
5118;DHT22;2578;51.622;7.046;2023-08-01T08:43:59;18.10;99.90
5118;DHT22;2578;51.622;7.046;2023-08-01T08:46:49;18.20;99.90
5118;DHT22;2578;51.622;7.046;2023-08-01T08:49:23;18.80;99.90
5118;DHT22;2578;51.622;7.046;2023-08-01T08:51:54;19.20;99.90
5118;DHT22;2578;51.622;7.046;2023-08-01T08:54:51;19.70;99.90
5118;DHT22;2578;51.622;7.046;2023-08-01T08:57:27;19.90;99.90
5118;DHT22;2578;51.622;7.046;2023-08-01T09:00:19;20.00;99.90
5118;DHT22;2578;51.622;7.046;2023-08-01T09:02:46;20.60;99.90
5118;DHT22;2578;51.622;7.046;2023-08-01T09:05:15;20.60;99.90
5118;DHT22;2578;51.622;7.046;2023-08-01T09:10:36;19.70;99.90
5118;DHT22;2578;51.622;7.046;2023-08-01T09:13:17;20.40;99.90
5118;DHT22;2578;51.622;7.046;2023-08-01T09:16:10;20.60;99.90
5118;DHT22;2578;51.622;7.046;2023-08-01T09:18:51;20.80;99.90
5118;DHT22;2578;51.622;7.046;2023-08-01T09:21:19;20.40;99.90
5118;DHT22;2578;51.622;7.046;2023-08-01T09:27:01;19.40;99.90
5118;DHT22;2578;51.622;7.046;2023-08-01T09:29:31;19.20;99.90
5118;DHT22;2578;51.622;7.046;2023-08-01T09:32:24;20.50;99.90
5118;DHT22;2578;51.622;7.046;2023-08-01T09:35:09;20.50;99.90
5118;DHT22;2578;51.622;7.046;2023-08-01T09:37:50;20.20;99.90
5118;DHT22;2578;51.622;7.046;2023-08-01T09:40:36;19.50;99.90
5118;DHT22;2578;51.622;7.046;2023-08-01T09:43:24;18.50;99.90
5118;DHT22;2578;51.622;7.046;2023-08-01T09:46:06;18.30;99.90
5118;DHT22;2578;51.622;7.046;2023-08-01T09:48:47;18.40;99.90
5118;DHT22;2578;51.622;7.046;2023-08-01T09:51:20;18.50;99.90
5118;DHT22;2578;51.622;7.046;2023-08-01T09:54:12;18.50;99.90
5118;DHT22;2578;51.622;7.046;2023-08-01T09:56:59;18.60;99.90
5118;DHT22;2578;51.622;7.046;2023-08-01T09:59:46;18.80;99.90
5118;DHT22;2578;51.622;7.046;2023-08-01T10:02:20;19.00;99.90
5118;DHT22;2578;51.622;7.046;2023-08-01T10:05:08;19.00;99.90
5118;DHT22;2578;51.622;7.046;2023-08-01T10:07:41;19.40;99.90
5118;DHT22;2578;51.622;7.046;2023-08-01T10:10:29;19.20;99.90
5118;DHT22;2578;51.622;7.046;2023-08-01T10:13:05;18.90;99.90
5118;DHT22;2578;51.622;7.046;2023-08-01T10:15:39;18.60;99.90
5118;DHT22;2578;51.622;7.046;2023-08-01T10:18:40;18.60;99.90
5118;DHT22;2578;51.622;7.046;2023-08-01T10:21:14;18.50;99.90
5118;DHT22;2578;51.622;7.046;2023-08-01T10:23:48;18.20;99.90
5118;DHT22;2578;51.622;7.046;2023-08-01T10:26:31;18.40;99.90
5118;DHT22;2578;51.622;7.046;2023-08-01T10:29:15;18.50;99.90
5118;DHT22;2578;51.622;7.046;2023-08-01T10:31:52;18.40;99.90
5118;DHT22;2578;51.622;7.046;2023-08-01T10:34:33;18.00;99.90
5118;DHT22;2578;51.622;7.046;2023-08-01T10:37:03;17.50;99.90
5118;DHT22;2578;51.622;7.046;2023-08-01T10:39:55;16.90;99.90
5118;DHT22;2578;51.622;7.046;2023-08-01T10:42:40;16.40;99.90
5118;DHT22;2578;51.622;7.046;2023-08-01T10:45:25;16.40;99.90
5118;DHT22;2578;51.622;7.046;2023-08-01T10:48:14;16.30;99.90
5118;DHT22;2578;51.622;7.046;2023-08-01T10:51:14;16.30;99.90
5118;DHT22;2578;51.622;7.046;2023-08-01T10:56:18;16.40;99.90
5118;DHT22;2578;51.622;7.046;2023-08-01T10:58:44;16.40;99.90
5118;DHT22;2578;51.622;7.046;2023-08-01T11:01:10;16.40;99.90
5118;DHT22;2578;51.622;7.046;2023-08-01T11:03:37;16.50;99.90
5118;DHT22;2578;51.622;7.046;2023-08-01T11:06:03;16.50;99.90
5118;DHT22;2578;51.622;7.046;2023-08-01T11:08:36;16.70;99.90
5118;DHT22;2578;51.622;7.046;2023-08-01T11:11:07;16.90;99.90
5118;DHT22;2578;51.622;7.046;2023-08-01T11:13:34;17.50;99.90
5118;DHT22;2578;51.622;7.046;2023-08-01T11:16:02;18.00;99.90
5118;DHT22;2578;51.622;7.046;2023-08-01T11:18:28;18.80;99.90
5118;DHT22;2578;51.622;7.046;2023-08-01T11:20:55;18.90;99.90
5118;DHT22;2578;51.622;7.046;2023-08-01T11:23:27;19.10;99.90
5118;DHT22;2578;51.622;7.046;2023-08-01T11:25:53;18.90;99.90
5118;DHT22;2578;51.622;7.046;2023-08-01T11:28:20;18.70;99.90
5118;DHT22;2578;51.622;7.046;2023-08-01T11:30:46;18.50;99.90
5118;DHT22;2578;51.622;7.046;2023-08-01T11:33:22;18.50;99.90
5118;DHT22;2578;51.622;7.046;2023-08-01T11:35:53;18.80;99.90
5118;DHT22;2578;51.622;7.046;2023-08-01T11:38:33;19.10;99.90
5118;DHT22;2578;51.622;7.046;2023-08-01T11:41:00;19.10;99.90
5118;DHT22;2578;51.622;7.046;2023-08-01T11:43:26;19.00;99.90
5118;DHT22;2578;51.622;7.046;2023-08-01T11:45:54;19.20;99.90
5118;DHT22;2578;51.622;7.046;2023-08-01T11:48:21;19.70;99.90
5118;DHT22;2578;51.622;7.046;2023-08-01T11:50:47;19.60;99.90
5118;DHT22;2578;51.622;7.046;2023-08-01T11:53:20;19.60;99.90
5118;DHT22;2578;51.622;7.046;2023-08-01T11:55:47;19.20;99.90
5118;DHT22;2578;51.622;7.046;2023-08-01T11:58:13;19.10;99.90
5118;DHT22;2578;51.622;7.046;2023-08-01T12:00:40;19.50;99.90
5118;DHT22;2578;51.622;7.046;2023-08-01T12:03:08;19.60;99.90
5118;DHT22;2578;51.622;7.046;2023-08-01T12:05:41;20.40;99.90
5118;DHT22;2578;51.622;7.046;2023-08-01T12:08:11;20.60;99.90
5118;DHT22;2578;51.622;7.046;2023-08-01T12:10:41;21.10;99.90
5118;DHT22;2578;51.622;7.046;2023-08-01T12:13:19;21.50;99.90
5118;DHT22;2578;51.622;7.046;2023-08-01T12:15:47;22.60;99.90
5118;DHT22;2578;51.622;7.046;2023-08-01T12:18:22;22.60;99.90
5118;DHT22;2578;51.622;7.046;2023-08-01T12:20:49;22.50;99.90
5118;DHT22;2578;51.622;7.046;2023-08-01T12:23:14;22.10;99.90
5118;DHT22;2578;51.622;7.046;2023-08-01T12:25:40;22.20;99.90
5118;DHT22;2578;51.622;7.046;2023-08-01T12:28:05;21.70;99.90
5118;DHT22;2578;51.622;7.046;2023-08-01T12:30:31;21.70;99.90
5118;DHT22;2578;51.622;7.046;2023-08-01T12:32:57;21.90;99.90
5118;DHT22;2578;51.622;7.046;2023-08-01T12:35:22;20.80;99.90
5118;DHT22;2578;51.622;7.046;2023-08-01T12:37:48;20.40;99.90
5118;DHT22;2578;51.622;7.046;2023-08-01T12:40:14;20.70;99.90
5118;DHT22;2578;51.622;7.046;2023-08-01T12:42:39;20.80;99.90
5118;DHT22;2578;51.622;7.046;2023-08-01T12:45:05;22.00;99.90
5118;DHT22;2578;51.622;7.046;2023-08-01T12:49:57;22.60;99.90
5118;DHT22;2578;51.622;7.046;2023-08-01T12:52:23;22.20;99.90
5118;DHT22;2578;51.622;7.046;2023-08-01T12:54:52;21.90;99.90
5118;DHT22;2578;51.622;7.046;2023-08-01T12:57:17;21.90;99.90
5118;DHT22;2578;51.622;7.046;2023-08-01T12:59:44;21.90;99.90
5118;DHT22;2578;51.622;7.046;2023-08-01T13:02:10;22.10;99.90
5118;DHT22;2578;51.622;7.046;2023-08-01T13:04:35;21.40;99.90
5118;DHT22;2578;51.622;7.046;2023-08-01T13:07:01;21.50;99.90
5118;DHT22;2578;51.622;7.046;2023-08-01T13:09:26;21.90;99.90
5118;DHT22;2578;51.622;7.046;2023-08-01T13:11:52;22.60;99.90
5118;DHT22;2578;51.622;7.046;2023-08-01T13:14:18;22.90;97.90
5118;DHT22;2578;51.622;7.046;2023-08-01T13:16:47;22.80;74.80
5118;DHT22;2578;51.622;7.046;2023-08-01T13:19:12;22.50;82.90
5118;DHT22;2578;51.622;7.046;2023-08-01T13:21:38;22.90;99.90
5118;DHT22;2578;51.622;7.046;2023-08-01T13:24:04;23.30;92.90
5118;DHT22;2578;51.622;7.046;2023-08-01T13:26:33;23.20;63.40
5118;DHT22;2578;51.622;7.046;2023-08-01T13:28:59;23.60;69.90
5118;DHT22;2578;51.622;7.046;2023-08-01T13:31:26;22.90;61.20
5118;DHT22;2578;51.622;7.046;2023-08-01T13:33:51;25.40;95.80
5118;DHT22;2578;51.622;7.046;2023-08-01T13:36:20;22.50;95.30
5118;DHT22;2578;51.622;7.046;2023-08-01T13:38:45;21.90;91.20
5118;DHT22;2578;51.622;7.046;2023-08-01T13:41:11;21.90;92.80
5118;DHT22;2578;51.622;7.046;2023-08-01T13:43:37;21.40;99.90
5118;DHT22;2578;51.622;7.046;2023-08-01T13:46:15;21.00;99.90
5118;DHT22;2578;51.622;7.046;2023-08-01T13:48:45;21.10;99.90
5118;DHT22;2578;51.622;7.046;2023-08-01T13:51:11;22.20;99.90
5118;DHT22;2578;51.622;7.046;2023-08-01T13:53:38;22.80;81.60
5118;DHT22;2578;51.622;7.046;2023-08-01T13:56:07;22.60;83.90
5118;DHT22;2578;51.622;7.046;2023-08-01T13:58:32;22.40;79.80
5118;DHT22;2578;51.622;7.046;2023-08-01T14:01:05;21.90;85.80
5118;DHT22;2578;51.622;7.046;2023-08-01T14:03:33;21.00;99.90
5118;DHT22;2578;51.622;7.046;2023-08-01T14:06:09;19.80;99.90
5118;DHT22;2578;51.622;7.046;2023-08-01T14:08:37;19.80;99.90
5118;DHT22;2578;51.622;7.046;2023-08-01T14:11:04;20.20;99.90
5118;DHT22;2578;51.622;7.046;2023-08-01T14:13:30;20.50;99.90
5118;DHT22;2578;51.622;7.046;2023-08-01T14:15:56;21.10;99.90
5118;DHT22;2578;51.622;7.046;2023-08-01T14:18:21;21.40;99.90
5118;DHT22;2578;51.622;7.046;2023-08-01T14:20:47;21.30;99.90
5118;DHT22;2578;51.622;7.046;2023-08-01T14:23:13;21.30;99.90
5118;DHT22;2578;51.622;7.046;2023-08-01T14:25:38;20.90;99.90
5118;DHT22;2578;51.622;7.046;2023-08-01T14:28:04;21.20;99.90
5118;DHT22;2578;51.622;7.046;2023-08-01T14:30:30;21.10;92.70
5118;DHT22;2578;51.622;7.046;2023-08-01T14:33:03;21.40;94.80
5118;DHT22;2578;51.622;7.046;2023-08-01T14:37:55;21.70;72.90
5118;DHT22;2578;51.622;7.046;2023-08-01T14:40:22;21.90;44.70
5118;DHT22;2578;51.622;7.046;2023-08-01T14:42:47;22.20;35.90
5118;DHT22;2578;51.622;7.046;2023-08-01T14:45:13;22.20;11.50
5118;DHT22;2578;51.622;7.046;2023-08-01T14:47:40;22.20;22.70
5118;DHT22;2578;51.622;7.046;2023-08-01T14:50:06;22.20;37.30
5118;DHT22;2578;51.622;7.046;2023-08-01T14:52:32;22.50;31.30
5118;DHT22;2578;51.622;7.046;2023-08-01T14:54:57;22.40;25.60
5118;DHT22;2578;51.622;7.046;2023-08-01T14:57:23;22.60;1.00
5118;DHT22;2578;51.622;7.046;2023-08-01T14:59:49;22.30;1.00
5118;DHT22;2578;51.622;7.046;2023-08-01T15:02:15;22.00;2.90
5118;DHT22;2578;51.622;7.046;2023-08-01T15:07:07;21.80;1.00
5118;DHT22;2578;51.622;7.046;2023-08-01T15:09:33;22.20;7.20
5118;DHT22;2578;51.622;7.046;2023-08-01T15:11:59;22.20;15.50
5118;DHT22;2578;51.622;7.046;2023-08-01T15:14:24;21.90;4.50
5118;DHT22;2578;51.622;7.046;2023-08-01T15:16:50;21.90;1.00
5118;DHT22;2578;51.622;7.046;2023-08-01T15:19:15;22.00;10.00
5118;DHT22;2578;51.622;7.046;2023-08-01T15:21:41;21.90;18.20
5118;DHT22;2578;51.622;7.046;2023-08-01T15:24:07;22.00;10.20
5118;DHT22;2578;51.622;7.046;2023-08-01T15:26:33;22.30;4.20
5118;DHT22;2578;51.622;7.046;2023-08-01T15:28:59;22.10;1.00
5118;DHT22;2578;51.622;7.046;2023-08-01T15:31:24;22.20;1.00
5118;DHT22;2578;51.622;7.046;2023-08-01T15:33:50;22.50;1.00
5118;DHT22;2578;51.622;7.046;2023-08-01T15:36:16;22.50;1.00
5118;DHT22;2578;51.622;7.046;2023-08-01T15:38:41;22.10;1.00
5118;DHT22;2578;51.622;7.046;2023-08-01T15:41:07;22.10;1.00
5118;DHT22;2578;51.622;7.046;2023-08-01T15:43:40;22.30;1.00
5118;DHT22;2578;51.622;7.046;2023-08-01T15:46:07;22.20;1.00
5118;DHT22;2578;51.622;7.046;2023-08-01T15:48:33;21.90;1.00
5118;DHT22;2578;51.622;7.046;2023-08-01T15:51:01;22.00;1.00
5118;DHT22;2578;51.622;7.046;2023-08-01T15:53:27;22.10;1.00
5118;DHT22;2578;51.622;7.046;2023-08-01T15:56:04;23.60;1.00
5118;DHT22;2578;51.622;7.046;2023-08-01T15:58:30;22.40;1.00
5118;DHT22;2578;51.622;7.046;2023-08-01T16:00:57;22.10;1.00
5118;DHT22;2578;51.622;7.046;2023-08-01T16:03:23;22.10;14.10
5118;DHT22;2578;51.622;7.046;2023-08-01T16:05:48;22.30;9.30
5118;DHT22;2578;51.622;7.046;2023-08-01T16:08:14;22.40;10.40
5118;DHT22;2578;51.622;7.046;2023-08-01T16:10:43;22.30;1.00
5118;DHT22;2578;51.622;7.046;2023-08-01T16:13:10;22.40;1.00
5118;DHT22;2578;51.622;7.046;2023-08-01T16:15:37;22.20;1.00
5118;DHT22;2578;51.622;7.046;2023-08-01T16:18:06;22.10;1.00
5118;DHT22;2578;51.622;7.046;2023-08-01T16:20:33;21.90;1.00
5118;DHT22;2578;51.622;7.046;2023-08-01T16:22:59;21.80;1.00
5118;DHT22;2578;51.622;7.046;2023-08-01T16:25:25;21.90;1.00
5118;DHT22;2578;51.622;7.046;2023-08-01T16:27:51;21.90;1.00
5118;DHT22;2578;51.622;7.046;2023-08-01T16:30:17;21.80;6.60
5118;DHT22;2578;51.622;7.046;2023-08-01T16:32:42;21.90;1.00
5118;DHT22;2578;51.622;7.046;2023-08-01T16:35:08;21.60;1.00
5118;DHT22;2578;51.622;7.046;2023-08-01T16:37:34;21.60;14.80
5118;DHT22;2578;51.622;7.046;2023-08-01T16:40:00;21.80;9.40
5118;DHT22;2578;51.622;7.046;2023-08-01T16:42:26;21.70;1.00
5118;DHT22;2578;51.622;7.046;2023-08-01T16:44:52;21.40;1.00
5118;DHT22;2578;51.622;7.046;2023-08-01T16:47:18;21.40;1.00
5118;DHT22;2578;51.622;7.046;2023-08-01T16:49:47;21.40;2.50
5118;DHT22;2578;51.622;7.046;2023-08-01T16:52:13;21.40;3.60
5118;DHT22;2578;51.622;7.046;2023-08-01T16:54:39;21.50;1.00
5118;DHT22;2578;51.622;7.046;2023-08-01T16:57:05;21.50;6.30
5118;DHT22;2578;51.622;7.046;2023-08-01T16:59:31;21.30;18.10
5118;DHT22;2578;51.622;7.046;2023-08-01T17:01:56;21.40;23.40
5118;DHT22;2578;51.622;7.046;2023-08-01T17:04:22;21.00;20.50
5118;DHT22;2578;51.622;7.046;2023-08-01T17:06:47;20.80;15.30
5118;DHT22;2578;51.622;7.046;2023-08-01T17:09:13;20.80;37.80
5118;DHT22;2578;51.622;7.046;2023-08-01T17:11:39;20.70;40.10
5118;DHT22;2578;51.622;7.046;2023-08-01T17:14:05;20.80;36.50
5118;DHT22;2578;51.622;7.046;2023-08-01T17:16:31;20.80;34.60
5118;DHT22;2578;51.622;7.046;2023-08-01T17:18:57;20.70;43.10
5118;DHT22;2578;51.622;7.046;2023-08-01T17:21:23;20.70;60.60
5118;DHT22;2578;51.622;7.046;2023-08-01T17:23:48;20.60;72.60
5118;DHT22;2578;51.622;7.046;2023-08-01T17:26:14;20.70;48.30
5118;DHT22;2578;51.622;7.046;2023-08-01T17:28:40;20.70;36.70
5118;DHT22;2578;51.622;7.046;2023-08-01T17:31:06;20.80;51.50